createdAt,value
2023-08-23T00:01:24.470Z,2.17
2023-08-23T00:04:27.217Z,1.55
2023-08-23T00:07:29.900Z,2.38
2023-08-23T00:10:33.303Z,2.50
2023-08-23T00:13:36.479Z,2.22
2023-08-23T00:16:39.123Z,2.33
2023-08-23T00:19:41.961Z,1.23
2023-08-23T00:22:44.702Z,0.90
2023-08-23T00:25:47.977Z,2.08
2023-08-23T00:28:51.510Z,2.50
2023-08-23T00:31:54.183Z,2.35
2023-08-23T00:34:56.885Z,2.30
2023-08-23T00:37:59.452Z,2.40
2023-08-23T00:41:02.015Z,1.48
2023-08-23T00:44:04.671Z,1.70
2023-08-23T00:47:07.826Z,1.92
2023-08-23T00:50:11.242Z,1.90
2023-08-23T00:53:14.674Z,2.20
2023-08-23T00:56:17.789Z,1.20
2023-08-23T00:59:21.142Z,1.98
2023-08-23T01:02:23.778Z,1.80
2023-08-23T01:05:27.196Z,1.95
2023-08-23T01:08:30.023Z,2.65
2023-08-23T01:11:33.053Z,2.22
2023-08-23T01:14:35.430Z,2.10
2023-08-23T01:17:37.844Z,1.08
2023-08-23T01:20:40.247Z,1.67
2023-08-23T01:23:42.780Z,2.35
2023-08-23T01:26:45.195Z,1.58
2023-08-23T01:29:48.976Z,2.30
2023-08-23T01:32:51.970Z,1.80
2023-08-23T01:35:54.630Z,1.80
2023-08-23T01:38:57.529Z,1.77
2023-08-23T01:42:00.516Z,1.77
2023-08-23T01:45:03.386Z,1.75
2023-08-23T01:48:06.346Z,2.00
2023-08-23T01:51:08.573Z,2.45
2023-08-23T01:54:11.004Z,1.85
2023-08-23T01:57:13.608Z,2.13
2023-08-23T02:00:16.187Z,4.47
2023-08-23T02:03:19.273Z,1.95
2023-08-23T02:06:22.939Z,2.28
2023-08-23T02:09:27.418Z,1.83
2023-08-23T02:12:30.008Z,2.17
2023-08-23T02:15:32.343Z,1.95
2023-08-23T02:18:34.741Z,1.65
2023-08-23T02:21:37.993Z,1.75
2023-08-23T02:24:41.765Z,1.42
2023-08-23T02:27:44.236Z,1.30
2023-08-23T02:30:47.254Z,1.23
2023-08-23T02:33:49.905Z,1.35
2023-08-23T02:36:52.800Z,1.38
2023-08-23T02:39:59.004Z,2.95
2023-08-23T02:43:01.987Z,1.40
2023-08-23T02:46:04.835Z,2.03
2023-08-23T02:49:07.459Z,1.40
2023-08-23T02:52:10.404Z,1.92
2023-08-23T02:55:13.360Z,2.13
2023-08-23T02:58:17.414Z,1.60
2023-08-23T03:01:20.466Z,1.83
2023-08-23T03:04:23.824Z,1.27
2023-08-23T03:07:27.060Z,1.60
2023-08-23T03:10:30.180Z,1.85
2023-08-23T03:13:32.444Z,1.88
2023-08-23T03:16:34.794Z,1.40
2023-08-23T03:19:37.581Z,2.58
2023-08-23T03:22:41.076Z,2.53
2023-08-23T03:25:44.881Z,3.78
2023-08-23T03:28:48.118Z,5.85
2023-08-23T03:31:52.993Z,3.05
2023-08-23T03:34:57.500Z,2.92
2023-08-23T03:38:00.201Z,4.18
2023-08-23T03:41:02.912Z,4.80
2023-08-23T03:44:06.076Z,2.72
2023-08-23T03:47:09.012Z,3.03
2023-08-23T03:50:12.301Z,6.88
2023-08-23T03:53:14.700Z,7.28
2023-08-23T03:56:18.256Z,10.02
2023-08-23T03:59:21.672Z,14.48
2023-08-23T04:02:24.332Z,11.48
2023-08-23T04:05:27.029Z,18.55
2023-08-23T04:08:30.588Z,21.77
2023-08-23T04:11:33.284Z,22.00
2023-08-23T04:14:36.056Z,18.85
2023-08-23T04:17:38.537Z,15.23
2023-08-23T04:20:41.361Z,17.15
2023-08-23T04:23:44.250Z,16.30
2023-08-23T04:26:47.514Z,20.15
2023-08-23T04:29:49.776Z,15.13
2023-08-23T04:32:52.701Z,15.27
2023-08-23T04:35:56.176Z,15.68
2023-08-23T04:38:58.493Z,14.82
2023-08-23T04:42:02.022Z,16.30
2023-08-23T04:45:05.191Z,12.35
2023-08-23T04:48:08.003Z,11.68
2023-08-23T04:51:10.503Z,12.82
2023-08-23T04:54:13.470Z,12.32
2023-08-23T04:57:16.622Z,13.20
2023-08-23T05:00:19.107Z,9.88
2023-08-23T05:03:21.420Z,8.18
2023-08-23T05:06:24.233Z,12.60
2023-08-23T05:09:29.176Z,10.50
2023-08-23T05:12:32.520Z,13.35
2023-08-23T05:15:35.736Z,10.35
2023-08-23T05:18:38.193Z,11.43
2023-08-23T05:21:40.959Z,9.20
2023-08-23T05:24:44.155Z,9.27
2023-08-23T05:27:47.032Z,12.95
2023-08-23T05:30:50.105Z,9.77
2023-08-23T05:33:55.899Z,7.80
2023-08-23T05:36:59.914Z,8.75
2023-08-23T05:40:04.756Z,9.23
2023-08-23T05:43:09.188Z,7.55
2023-08-23T05:46:12.314Z,9.10
2023-08-23T05:49:14.898Z,8.18
2023-08-23T05:52:17.897Z,5.95
2023-08-23T05:55:20.840Z,7.32
2023-08-23T05:58:23.698Z,7.88
2023-08-23T06:01:26.560Z,8.82
2023-08-23T06:04:29.656Z,8.20
2023-08-23T06:07:32.199Z,6.60
2023-08-23T06:10:34.722Z,6.38
2023-08-23T06:13:37.866Z,7.90
2023-08-23T06:16:40.945Z,7.82
2023-08-23T06:19:43.746Z,7.82
2023-08-23T06:22:46.106Z,5.57
2023-08-23T06:25:48.631Z,8.15
2023-08-23T06:28:50.799Z,6.18
2023-08-23T06:31:53.341Z,4.78
2023-08-23T06:34:56.664Z,6.47
2023-08-23T06:37:59.881Z,5.47
2023-08-23T06:41:02.409Z,4.00
2023-08-23T06:44:04.745Z,4.75
2023-08-23T06:47:07.070Z,4.18
2023-08-23T06:50:13.105Z,4.93
2023-08-23T06:53:18.731Z,5.78
2023-08-23T06:56:21.989Z,4.28
2023-08-23T06:59:25.457Z,7.15
2023-08-23T07:02:27.674Z,4.30
2023-08-23T07:05:30.969Z,3.92
2023-08-23T07:08:34.049Z,4.15
2023-08-23T07:11:36.829Z,4.25
2023-08-23T07:14:39.918Z,4.57
2023-08-23T07:17:43.313Z,3.75
2023-08-23T07:20:46.842Z,3.78
2023-08-23T07:23:50.181Z,4.05
2023-08-23T07:26:52.953Z,3.55
2023-08-23T07:29:55.325Z,3.58
2023-08-23T07:32:58.413Z,3.67
2023-08-23T07:36:01.494Z,3.15
2023-08-23T07:39:03.554Z,3.78
2023-08-23T07:42:06.540Z,4.60
2023-08-23T07:45:10.264Z,3.28
2023-08-23T07:48:13.215Z,3.72
2023-08-23T07:51:16.332Z,3.58
2023-08-23T07:54:19.230Z,3.72
2023-08-23T07:57:21.822Z,2.85
2023-08-23T08:00:24.471Z,3.95
2023-08-23T08:03:28.688Z,3.42
2023-08-23T08:06:31.748Z,3.22
2023-08-23T08:09:34.337Z,3.03
2023-08-23T08:12:37.824Z,3.10
2023-08-23T08:15:42.172Z,3.30
2023-08-23T08:18:45.637Z,2.58
2023-08-23T08:21:48.511Z,2.75
2023-08-23T08:24:51.597Z,2.88
2023-08-23T08:27:54.740Z,3.33
2023-08-23T08:30:57.464Z,2.67
2023-08-23T08:34:00.705Z,3.33
2023-08-23T08:37:03.828Z,2.67
2023-08-23T08:40:06.505Z,2.80
2023-08-23T08:43:10.864Z,2.95
2023-08-23T08:46:14.141Z,2.65
2023-08-23T08:49:17.844Z,3.00
2023-08-23T08:52:23.906Z,2.75
2023-08-23T08:55:26.818Z,2.53
2023-08-23T08:58:29.533Z,2.50
2023-08-23T09:01:34.506Z,2.38
2023-08-23T09:04:36.629Z,1.45
2023-08-23T09:07:39.751Z,2.03
2023-08-23T09:10:42.255Z,2.40
2023-08-23T09:13:45.380Z,1.77
2023-08-23T09:16:47.937Z,3.15
2023-08-23T09:19:52.226Z,2.17
2023-08-23T09:22:55.229Z,2.10
2023-08-23T09:26:00.770Z,2.28
2023-08-23T09:29:08.778Z,2.22
2023-08-23T09:32:13.718Z,3.88
2023-08-23T09:35:19.033Z,3.80
2023-08-23T09:38:41.868Z,2.42
2023-08-23T09:42:00.796Z,2.85
2023-08-23T09:45:08.073Z,3.10
2023-08-23T09:48:14.107Z,5.20
2023-08-23T09:51:17.178Z,3.00
2023-08-23T09:54:29.005Z,1.70
2023-08-23T09:57:42.527Z,3.85
2023-08-23T10:00:45.537Z,5.15
2023-08-23T10:03:48.410Z,5.57
2023-08-23T10:06:51.316Z,41.95
2023-08-23T10:09:54.326Z,37.28
2023-08-23T10:12:57.530Z,40.00
2023-08-23T10:16:00.947Z,34.17
2023-08-23T10:19:04.363Z,28.20
2023-08-23T10:22:08.377Z,26.08
2023-08-23T10:25:12.328Z,22.42
2023-08-23T10:28:16.324Z,33.70
2023-08-23T10:31:20.852Z,22.42
2023-08-23T10:34:23.480Z,22.77
2023-08-23T10:37:26.068Z,21.50
2023-08-23T10:40:29.345Z,16.83
2023-08-23T10:43:31.627Z,18.08
2023-08-23T10:46:34.048Z,15.93
2023-08-23T10:49:36.814Z,12.80
2023-08-23T10:52:39.123Z,14.32
2023-08-23T10:55:42.664Z,12.10
2023-08-23T10:58:45.879Z,9.85
2023-08-23T11:01:49.367Z,10.13
2023-08-23T11:04:52.419Z,10.30
2023-08-23T11:07:55.110Z,7.90
2023-08-23T11:10:58.655Z,7.05
2023-08-23T11:14:01.645Z,5.93
2023-08-23T11:17:04.576Z,7.43
2023-08-23T11:20:07.504Z,7.50
2023-08-23T11:23:10.470Z,4.85
2023-08-23T11:26:13.173Z,6.47
2023-08-23T11:29:15.524Z,6.30
2023-08-23T11:32:18.681Z,5.57
2023-08-23T11:35:22.898Z,5.22
2023-08-23T11:38:25.970Z,4.68
2023-08-23T11:41:29.119Z,5.35
2023-08-23T11:44:32.569Z,5.65
2023-08-23T11:47:34.658Z,5.18
2023-08-23T11:50:37.010Z,4.72
2023-08-23T11:53:39.334Z,4.15
2023-08-23T11:56:42.195Z,3.42
2023-08-23T11:59:44.859Z,3.42
2023-08-23T12:02:47.822Z,5.22
2023-08-23T12:05:50.959Z,3.60
2023-08-23T12:08:54.284Z,4.35
2023-08-23T12:11:56.795Z,3.38
2023-08-23T12:14:59.129Z,2.95
2023-08-23T12:18:01.896Z,3.42
2023-08-23T12:21:04.996Z,3.53
2023-08-23T12:24:08.190Z,3.65
2023-08-23T12:27:10.395Z,4.30
2023-08-23T12:30:12.758Z,3.33
2023-08-23T12:33:16.163Z,2.47
2023-08-23T12:36:19.624Z,3.15
2023-08-23T12:39:22.562Z,4.80
2023-08-23T12:42:25.412Z,2.90
2023-08-23T12:45:28.407Z,2.90
2023-08-23T12:48:34.777Z,3.30
2023-08-23T12:51:37.917Z,3.30
2023-08-23T12:54:50.101Z,3.60
2023-08-23T12:57:55.384Z,5.00
2023-08-23T13:01:05.870Z,4.20
2023-08-23T13:04:13.343Z,4.10
2023-08-23T13:07:26.543Z,5.43
2023-08-23T13:10:38.450Z,5.20
2023-08-23T13:13:50.805Z,4.13
2023-08-23T13:16:55.775Z,5.20
2023-08-23T13:20:06.541Z,6.78
2023-08-23T13:23:09.637Z,5.20
2023-08-23T13:26:15.865Z,5.35
2023-08-23T13:29:20.675Z,4.43
2023-08-23T13:32:32.954Z,5.72
2023-08-23T13:35:36.156Z,3.13
2023-08-23T13:42:07.971Z,4.55
2023-08-23T13:45:26.403Z,4.65
2023-08-23T13:48:41.506Z,3.58
2023-08-23T13:52:04.908Z,5.25
2023-08-23T13:58:24.832Z,4.25
2023-08-23T14:01:28.346Z,3.53
2023-08-23T14:04:31.810Z,3.42
2023-08-23T14:07:35.583Z,5.72
2023-08-23T14:10:38.446Z,5.13
2023-08-23T14:13:42.223Z,4.47
2023-08-23T14:16:45.736Z,4.70
2023-08-23T14:19:49.085Z,4.47
2023-08-23T14:22:52.009Z,4.85
2023-08-23T14:25:54.837Z,5.30
2023-08-23T14:28:58.586Z,3.53
2023-08-23T14:32:01.968Z,3.78
2023-08-23T14:35:05.910Z,4.05
2023-08-23T14:38:09.769Z,5.38
2023-08-23T14:41:13.553Z,5.47
2023-08-23T14:44:16.179Z,5.10
2023-08-23T14:47:19.797Z,4.93
2023-08-23T14:50:24.283Z,3.90
2023-08-23T14:53:27.208Z,4.05
2023-08-23T14:56:31.132Z,4.88
2023-08-23T14:59:34.733Z,4.10
2023-08-23T15:02:37.783Z,3.88
2023-08-23T15:05:40.508Z,4.47
2023-08-23T15:08:43.977Z,4.88
2023-08-23T15:11:46.286Z,5.93
2023-08-23T15:14:49.737Z,6.32
2023-08-23T15:17:53.450Z,3.13
2023-08-23T15:20:57.076Z,3.97
2023-08-23T15:24:00.022Z,12.60
2023-08-23T15:27:03.249Z,17.05
2023-08-23T15:30:12.574Z,28.70
2023-08-23T15:33:16.035Z,63.45
2023-08-23T15:36:18.725Z,63.67
2023-08-23T15:39:21.723Z,56.58
2023-08-23T15:42:24.511Z,54.97
2023-08-23T15:45:26.825Z,47.60
2023-08-23T15:48:29.617Z,46.42
2023-08-23T15:51:32.399Z,38.85
2023-08-23T15:54:35.302Z,37.95
2023-08-23T15:57:38.392Z,33.78
2023-08-23T16:00:41.773Z,34.28
2023-08-23T16:03:45.061Z,31.45
2023-08-23T16:06:47.867Z,26.70
2023-08-23T16:09:51.081Z,25.23
2023-08-23T16:12:54.106Z,23.27
2023-08-23T16:15:57.731Z,21.75
2023-08-23T16:19:01.781Z,19.77
2023-08-23T16:22:05.116Z,20.83
2023-08-23T16:25:08.096Z,15.20
2023-08-23T16:28:11.274Z,15.75
2023-08-23T16:31:14.377Z,15.55
2023-08-23T16:34:16.870Z,14.27
2023-08-23T16:37:19.715Z,11.80
2023-08-23T16:40:22.187Z,12.27
2023-08-23T16:43:24.678Z,11.88
2023-08-23T16:46:28.336Z,10.75
2023-08-23T16:49:31.468Z,10.88
2023-08-23T16:52:35.364Z,9.15
2023-08-23T16:55:38.815Z,9.32
2023-08-23T16:58:41.895Z,8.20
2023-08-23T17:01:45.044Z,9.77
2023-08-23T17:04:47.362Z,8.77
2023-08-23T17:07:50.406Z,6.88
2023-08-23T17:10:53.733Z,7.70
2023-08-23T17:13:56.535Z,5.68
2023-08-23T17:16:59.138Z,6.15
2023-08-23T17:20:02.582Z,5.95
2023-08-23T17:23:05.830Z,5.30
2023-08-23T17:26:08.448Z,6.30
2023-08-23T17:29:12.056Z,5.60
2023-08-23T17:32:15.289Z,6.43
2023-08-23T17:35:18.029Z,5.03
2023-08-23T17:38:20.439Z,5.00
2023-08-23T17:41:23.282Z,3.92
2023-08-23T17:44:26.141Z,4.90
2023-08-23T17:47:29.097Z,3.35
2023-08-23T17:50:31.425Z,3.92
2023-08-23T17:53:34.527Z,3.03
2023-08-23T17:56:38.051Z,4.35
2023-08-23T17:59:41.521Z,5.70
2023-08-23T18:02:44.175Z,3.58
2023-08-23T18:05:47.450Z,5.18
2023-08-23T18:08:50.210Z,5.15
2023-08-23T18:11:52.956Z,4.30
2023-08-23T18:14:55.758Z,4.57
2023-08-23T18:17:58.183Z,4.18
2023-08-23T18:21:00.846Z,5.70
2023-08-23T18:24:03.788Z,2.97
2023-08-23T18:27:06.171Z,3.72
2023-08-23T18:30:08.542Z,3.58
2023-08-23T18:33:11.858Z,5.28
2023-08-23T18:36:15.506Z,5.57
2023-08-23T18:39:18.289Z,6.18
2023-08-23T18:42:21.244Z,5.35
2023-08-23T18:45:24.281Z,4.50
2023-08-23T18:48:27.164Z,6.43
2023-08-23T18:51:29.621Z,4.00
2023-08-23T18:54:32.378Z,4.13
2023-08-23T18:57:35.264Z,4.43
2023-08-23T19:00:39.089Z,3.13
2023-08-23T19:03:42.396Z,2.72
2023-08-23T19:06:44.912Z,2.60
2023-08-23T19:09:48.685Z,4.05
2023-08-23T19:12:51.837Z,4.63
2023-08-23T19:15:54.816Z,5.90
2023-08-23T19:18:57.953Z,3.45
2023-08-23T19:22:01.991Z,4.47
2023-08-23T19:25:06.038Z,4.18
2023-08-23T19:28:09.162Z,5.97
2023-08-23T19:31:11.693Z,3.05
2023-08-23T19:34:14.356Z,3.95
2023-08-23T19:37:17.433Z,2.20
2023-08-23T19:40:21.048Z,6.22
2023-08-23T19:43:23.885Z,2.88
2023-08-23T19:46:26.694Z,4.72
2023-08-23T19:49:29.598Z,3.33
2023-08-23T19:52:32.405Z,4.05
2023-08-23T19:55:35.631Z,2.60
2023-08-23T19:58:38.274Z,2.65
2023-08-23T20:01:41.142Z,3.00
2023-08-23T20:04:43.917Z,2.83
2023-08-23T20:07:46.335Z,3.78
2023-08-23T20:10:49.739Z,2.70
2023-08-23T20:13:53.074Z,3.00
2023-08-23T20:16:56.078Z,2.08
2023-08-23T20:19:59.289Z,3.08
2023-08-23T20:23:02.637Z,2.22
2023-08-23T20:26:05.579Z,1.35
2023-08-23T20:29:09.056Z,2.85
2023-08-23T20:32:12.936Z,2.85
2023-08-23T20:35:15.550Z,2.80
2023-08-23T20:38:18.331Z,2.70
2023-08-23T20:41:20.924Z,1.65
2023-08-23T20:44:24.856Z,2.63
2023-08-23T20:47:27.253Z,4.40
2023-08-23T20:50:29.917Z,3.78
2023-08-23T20:53:32.613Z,2.58
2023-08-23T20:56:35.987Z,2.08
2023-08-23T20:59:39.217Z,2.95
2023-08-23T21:02:42.022Z,2.92
2023-08-23T21:05:44.834Z,2.00
2023-08-23T21:08:48.454Z,2.13
2023-08-23T21:11:51.270Z,3.30
2023-08-23T21:14:54.486Z,1.45
2023-08-23T21:17:58.134Z,1.75
2023-08-23T21:21:00.915Z,1.83
2023-08-23T21:24:03.259Z,2.60
2023-08-23T21:27:05.674Z,3.55
2023-08-23T21:30:08.431Z,1.77
2023-08-23T21:33:12.058Z,2.42
2023-08-23T21:36:14.830Z,1.75
2023-08-23T21:39:18.287Z,2.17
2023-08-23T21:42:21.004Z,2.22
2023-08-23T21:45:23.770Z,2.33
2023-08-23T21:48:26.114Z,1.70
2023-08-23T21:51:28.832Z,2.38
2023-08-23T21:54:32.498Z,1.27
2023-08-23T21:57:36.859Z,2.47
2023-08-23T22:00:39.655Z,1.90
2023-08-23T22:03:42.474Z,1.83
2023-08-23T22:06:45.138Z,2.30
2023-08-23T22:09:47.494Z,2.35
2023-08-23T22:12:50.674Z,1.83
2023-08-23T22:15:54.510Z,1.00
2023-08-23T22:18:57.986Z,2.33
2023-08-23T22:22:01.008Z,2.80
2023-08-23T22:25:03.563Z,2.05
2023-08-23T22:28:06.767Z,2.65
2023-08-23T22:31:09.728Z,1.60
2023-08-23T22:34:14.597Z,2.08
2023-08-23T22:37:18.123Z,1.38
2023-08-23T22:40:21.247Z,1.20
2023-08-23T22:43:24.305Z,0.93
2023-08-23T22:46:32.189Z,1.48
2023-08-23T22:49:35.156Z,1.38
2023-08-23T22:52:37.494Z,1.35
2023-08-23T22:55:40.704Z,1.30
2023-08-23T22:58:44.216Z,2.08
2023-08-23T23:01:46.563Z,2.65
2023-08-23T23:04:48.791Z,1.13
2023-08-23T23:07:51.649Z,2.63
2023-08-23T23:10:54.906Z,2.65
2023-08-23T23:13:58.202Z,1.83
2023-08-23T23:17:01.636Z,1.52
2023-08-23T23:20:04.412Z,1.38
2023-08-23T23:23:07.198Z,1.27
2023-08-23T23:26:09.934Z,1.10
2023-08-23T23:29:12.704Z,0.85
2023-08-23T23:32:15.424Z,3.63
2023-08-23T23:35:17.689Z,1.30
2023-08-23T23:38:20.400Z,2.22
2023-08-23T23:41:23.057Z,2.00
2023-08-23T23:44:25.873Z,1.63
2023-08-23T23:47:28.683Z,0.98
2023-08-23T23:50:31.767Z,1.48
2023-08-23T23:53:34.424Z,1.92
2023-08-23T23:56:37.071Z,1.40
2023-08-23T23:59:39.754Z,2.33
